Time;durP1;ratioP1;P1;durP2;ratioP2;P2;SDS_P1;SDS_P2;PMS_P1;PMS_P2;Temp;Humidity;BMP_temperature;BMP_pressure;BME280_temperature;BME280_humidity;BME280_pressure;Samples;Min_cycle;Max_cycle;Signal;HPM_P1;HPM_P2
2021/04/21 00:01:12;;;;;;;;;;;10.40;99.90;;;;;;5107451;28;19908;-72
2021/04/21 00:03:39;;;;;;;;;;;10.40;99.90;;;;;;5107082;28;19915;-72
2021/04/21 00:06:04;;;;;;;;;;;10.40;99.90;;;;;;5102977;28;19919;-72
2021/04/21 00:08:31;;;;;;;;;;;10.30;99.90;;;;;;5098041;28;19908;-72
2021/04/21 00:10:57;;;;;;;;;;;10.30;99.90;;;;;;5094491;28;19908;-72
2021/04/21 00:13:23;;;;;;;;;;;10.30;99.90;;;;;;5094923;28;19908;-72
2021/04/21 00:15:50;;;;;;;;;;;10.30;99.90;;;;;;5094586;28;19908;-73
2021/04/21 00:18:16;;;;;;;;;;;10.30;99.90;;;;;;5094313;28;19966;-73
2021/04/21 00:20:42;;;;;;;;;;;10.30;99.90;;;;;;5093563;28;19908;-72
2021/04/21 00:23:10;;;;;;;;;;;10.30;99.90;;;;;;5092014;28;19962;-71
2021/04/21 00:25:35;;;;;;;;;;;10.30;99.90;;;;;;5093487;28;19969;-72
2021/04/21 00:28:05;;;;;;;;;;;10.30;99.90;;;;;;5092837;28;19912;-71
2021/04/21 00:30:32;;;;;;;;;;;10.30;99.90;;;;;;5092597;28;19948;-72
2021/04/21 00:32:58;;;;;;;;;;;10.30;99.90;;;;;;5092003;28;19994;-72
2021/04/21 00:35:34;;;;;;;;;;;10.30;99.90;;;;;;5093171;28;19915;-72
2021/04/21 00:38:00;;;;;;;;;;;10.20;99.90;;;;;;5093426;28;19961;-72
2021/04/21 00:40:47;;;;;;;;;;;10.20;99.90;;;;;;5092207;28;19908;-71
2021/04/21 00:43:30;;;;;;;;;;;10.20;99.90;;;;;;5093327;28;20015;-72
2021/04/21 00:46:07;;;;;;;;;;;10.10;99.90;;;;;;5092946;28;19916;-72
2021/04/21 00:48:35;;;;;;;;;;;10.10;99.90;;;;;;5089947;28;19908;-72
2021/04/21 00:51:05;;;;;;;;;;;10.10;99.90;;;;;;5092814;28;20375;-72
2021/04/21 00:53:36;;;;;;;;;;;10.10;99.90;;;;;;5093245;28;19961;-72
2021/04/21 00:56:15;;;;;;;;;;;10.10;99.90;;;;;;5093061;28;19916;-72
2021/04/21 00:58:59;;;;;;;;;;;10.10;99.90;;;;;;5092076;28;19913;-72
2021/04/21 01:01:27;;;;;;;;;;;10.10;99.90;;;;;;5092630;28;19908;-72
2021/04/21 01:03:52;;;;;;;;;;;10.00;99.90;;;;;;5093219;28;19998;-73
2021/04/21 01:06:21;;;;;;;;;;;10.00;99.90;;;;;;5092858;28;20383;-72
2021/04/21 01:08:49;;;;;;;;;;;10.00;99.90;;;;;;5093162;28;19951;-72
2021/04/21 01:11:23;;;;;;;;;;;10.00;99.90;;;;;;5092727;28;19908;-72
2021/04/21 01:13:55;;;;;;;;;;;9.90;99.90;;;;;;5092063;28;19954;-72
2021/04/21 01:16:22;;;;;;;;;;;10.00;99.90;;;;;;5091695;28;19912;-72
2021/04/21 01:18:48;;;;;;;;;;;9.90;99.90;;;;;;5093096;28;19908;-72
2021/04/21 01:21:19;;;;;;;;;;;9.90;99.90;;;;;;5093073;28;19954;-72
2021/04/21 01:23:54;;;;;;;;;;;9.90;99.90;;;;;;5091825;28;20360;-72
2021/04/21 01:26:44;;;;;;;;;;;9.90;99.90;;;;;;5092642;28;19912;-73
2021/04/21 01:29:10;;;;;;;;;;;9.90;99.90;;;;;;5092049;28;19919;-72
2021/04/21 01:31:36;;;;;;;;;;;9.90;99.90;;;;;;5091292;28;20344;-72
2021/04/21 01:34:04;;;;;;;;;;;9.90;99.90;;;;;;5093404;28;20351;-72
2021/04/21 01:36:30;;;;;;;;;;;9.80;99.90;;;;;;5092696;28;19923;-73
2021/04/21 01:38:58;;;;;;;;;;;9.90;99.90;;;;;;5091926;28;20352;-73
2021/04/21 01:41:25;;;;;;;;;;;9.80;99.90;;;;;;5092704;28;20405;-71
2021/04/21 01:43:59;;;;;;;;;;;9.80;99.90;;;;;;5091485;28;19912;-72
2021/04/21 01:46:25;;;;;;;;;;;9.80;99.90;;;;;;5091734;28;19915;-72
2021/04/21 01:48:54;;;;;;;;;;;9.80;99.90;;;;;;5092710;28;20002;-72
2021/04/21 01:51:24;;;;;;;;;;;9.80;99.90;;;;;;5092377;28;19908;-71
2021/04/21 01:53:52;;;;;;;;;;;9.70;99.90;;;;;;5089791;28;19951;-71
2021/04/21 01:56:25;;;;;;;;;;;9.70;99.90;;;;;;5092610;28;19923;-72
2021/04/21 01:59:09;;;;;;;;;;;9.60;99.90;;;;;;5092594;28;19904;-72
2021/04/21 02:01:35;;;;;;;;;;;9.60;99.90;;;;;;5092605;28;19994;-72
2021/04/21 02:04:13;;;;;;;;;;;9.60;99.90;;;;;;5095985;28;20006;-72
2021/04/21 02:06:43;;;;;;;;;;;9.60;99.90;;;;;;5094638;28;19912;-72
2021/04/21 02:09:23;;;;;;;;;;;9.60;99.90;;;;;;5096140;28;19934;-72
2021/04/21 02:12:02;;;;;;;;;;;9.60;99.90;;;;;;5095069;28;19912;-72
2021/04/21 02:14:44;;;;;;;;;;;9.60;99.90;;;;;;5096371;28;19914;-72
2021/04/21 02:17:13;;;;;;;;;;;9.60;99.90;;;;;;5096129;28;19912;-72
2021/04/21 02:20:08;;;;;;;;;;;9.60;99.90;;;;;;5095978;28;20002;-72
2021/04/21 02:22:45;;;;;;;;;;;9.60;99.90;;;;;;5079669;28;19930;-72
2021/04/21 02:25:14;;;;;;;;;;;9.50;99.90;;;;;;5097039;28;19994;-72
2021/04/21 02:27:58;;;;;;;;;;;9.50;99.90;;;;;;5097261;28;20306;-72
2021/04/21 02:30:42;;;;;;;;;;;9.40;99.90;;;;;;5105522;28;19947;-72
2021/04/21 02:33:26;;;;;;;;;;;9.40;99.90;;;;;;5104590;28;19908;-72
2021/04/21 02:35:53;;;;;;;;;;;9.40;99.90;;;;;;5103263;28;20006;-72
2021/04/21 02:38:40;;;;;;;;;;;9.40;99.90;;;;;;5102375;28;19989;-72
2021/04/21 02:41:06;;;;;;;;;;;9.40;99.90;;;;;;5115405;28;19908;-72
2021/04/21 02:43:47;;;;;;;;;;;9.30;99.90;;;;;;5118487;28;19912;-72
2021/04/21 02:46:15;;;;;;;;;;;9.30;99.90;;;;;;5114598;28;19900;-73
2021/04/21 02:48:41;;;;;;;;;;;9.30;99.90;;;;;;5117890;28;19896;-73
2021/04/21 02:51:09;;;;;;;;;;;9.20;99.90;;;;;;5111938;28;19912;-72
2021/04/21 02:53:46;;;;;;;;;;;9.10;99.90;;;;;;5098635;28;19908;-72
2021/04/21 02:56:30;;;;;;;;;;;9.10;99.90;;;;;;5097376;28;19923;-73
2021/04/21 02:59:04;;;;;;;;;;;9.10;99.90;;;;;;5095266;28;19953;-72
2021/04/21 03:01:49;;;;;;;;;;;9.10;99.90;;;;;;5094640;28;19908;-72
2021/04/21 03:04:30;;;;;;;;;;;9.10;99.90;;;;;;5095501;28;19916;-72
2021/04/21 03:06:57;;;;;;;;;;;9.10;99.90;;;;;;5081053;28;19912;-72
2021/04/21 03:09:40;;;;;;;;;;;9.10;99.90;;;;;;5093643;28;20004;-72
2021/04/21 03:12:07;;;;;;;;;;;9.00;99.90;;;;;;5094122;28;20271;-73
2021/04/21 03:14:33;;;;;;;;;;;9.00;99.90;;;;;;5094567;28;19970;-74
2021/04/21 03:16:59;;;;;;;;;;;8.90;99.90;;;;;;5094703;28;19942;-73
2021/04/21 03:19:48;;;;;;;;;;;8.90;99.90;;;;;;5094217;28;20399;-72
2021/04/21 03:22:14;;;;;;;;;;;8.90;99.90;;;;;;5082592;28;20349;-72
2021/04/21 03:24:58;;;;;;;;;;;8.80;99.90;;;;;;5094704;28;19915;-72
2021/04/21 03:27:27;;;;;;;;;;;8.90;99.90;;;;;;5093309;28;20284;-73
2021/04/21 03:29:53;;;;;;;;;;;8.80;99.90;;;;;;5093394;28;19908;-72
2021/04/21 03:32:38;;;;;;;;;;;8.90;99.90;;;;;;5093082;28;20060;-72
2021/04/21 03:35:06;;;;;;;;;;;8.90;99.90;;;;;;5094812;28;19908;-73
2021/04/21 03:37:37;;;;;;;;;;;8.90;99.90;;;;;;5093075;28;19912;-73
2021/04/21 03:40:03;;;;;;;;;;;8.90;99.90;;;;;;5093843;28;20556;-71
2021/04/21 03:42:29;;;;;;;;;;;8.90;99.90;;;;;;5092748;28;19916;-72
2021/04/21 03:44:54;;;;;;;;;;;8.90;99.90;;;;;;5094448;28;19908;-72
2021/04/21 03:47:20;;;;;;;;;;;8.90;99.90;;;;;;5092496;28;19908;-73
2021/04/21 03:49:46;;;;;;;;;;;8.80;99.90;;;;;;5092376;28;20311;-72
2021/04/21 03:52:13;;;;;;;;;;;8.80;99.90;;;;;;5093182;28;19930;-73
2021/04/21 03:54:42;;;;;;;;;;;8.80;99.90;;;;;;5092358;28;19912;-72
2021/04/21 03:57:11;;;;;;;;;;;8.70;99.90;;;;;;5093815;28;19962;-72
2021/04/21 03:59:36;;;;;;;;;;;8.80;99.90;;;;;;5091630;28;19911;-72
2021/04/21 04:02:04;;;;;;;;;;;8.80;99.90;;;;;;5094068;28;20278;-72
2021/04/21 04:04:31;;;;;;;;;;;8.70;99.90;;;;;;5094103;28;20275;-72
2021/04/21 04:06:58;;;;;;;;;;;8.70;99.90;;;;;;5090958;28;19934;-72
2021/04/21 04:09:23;;;;;;;;;;;8.70;99.90;;;;;;5093856;28;19915;-72
2021/04/21 04:11:57;;;;;;;;;;;8.70;99.90;;;;;;5094179;28;19912;-72
2021/04/21 04:14:24;;;;;;;;;;;8.70;99.90;;;;;;5092790;28;20347;-72
2021/04/21 04:16:54;;;;;;;;;;;8.60;99.90;;;;;;5093212;28;20391;-72
2021/04/21 04:19:20;;;;;;;;;;;8.60;99.90;;;;;;5093501;28;20283;-73
2021/04/21 04:21:50;;;;;;;;;;;8.60;99.90;;;;;;5093817;28;19908;-73
2021/04/21 04:24:16;;;;;;;;;;;8.60;99.90;;;;;;5093280;28;19992;-72
2021/04/21 04:26:42;;;;;;;;;;;8.60;99.90;;;;;;5092379;28;19947;-72
2021/04/21 04:29:08;;;;;;;;;;;8.50;99.90;;;;;;5092026;28;20011;-73
2021/04/21 04:31:34;;;;;;;;;;;8.50;99.90;;;;;;5093525;28;19908;-73
2021/04/21 04:34:01;;;;;;;;;;;8.50;99.90;;;;;;5092344;28;19915;-73
2021/04/21 04:36:27;;;;;;;;;;;8.50;99.90;;;;;;5092160;28;19912;-73
2021/04/21 04:38:52;;;;;;;;;;;8.50;99.90;;;;;;5091771;28;19961;-72
2021/04/21 04:41:18;;;;;;;;;;;8.50;99.90;;;;;;5092455;28;20264;-72
2021/04/21 04:43:45;;;;;;;;;;;8.50;99.90;;;;;;5093229;28;20367;-72
2021/04/21 04:46:14;;;;;;;;;;;8.60;99.90;;;;;;5092764;28;19908;-72
2021/04/21 04:48:43;;;;;;;;;;;8.60;99.90;;;;;;5092333;28;19918;-72
2021/04/21 04:51:09;;;;;;;;;;;8.50;99.90;;;;;;5093539;28;19914;-73
2021/04/21 04:53:35;;;;;;;;;;;8.50;99.90;;;;;;5093765;28;19908;-72
2021/04/21 04:56:01;;;;;;;;;;;8.50;99.90;;;;;;5091953;28;19938;-72
2021/04/21 04:58:27;;;;;;;;;;;8.50;99.90;;;;;;5094071;28;19915;-72
2021/04/21 05:00:55;;;;;;;;;;;8.60;99.90;;;;;;5091316;28;20341;-72
2021/04/21 05:03:25;;;;;;;;;;;8.60;99.90;;;;;;5078463;28;19909;-72
2021/04/21 05:05:54;;;;;;;;;;;8.60;99.90;;;;;;5104177;28;19962;-72
2021/04/21 05:08:22;;;;;;;;;;;8.70;99.90;;;;;;5104555;28;19916;-73
2021/04/21 05:10:47;;;;;;;;;;;8.70;99.90;;;;;;5103788;28;19908;-73
2021/04/21 05:13:14;;;;;;;;;;;8.70;99.90;;;;;;5103461;28;19899;-73
2021/04/21 05:15:40;;;;;;;;;;;8.80;99.90;;;;;;5115180;28;19987;-73
2021/04/21 05:18:08;;;;;;;;;;;8.80;99.90;;;;;;5114859;28;19900;-73
2021/04/21 05:20:33;;;;;;;;;;;8.90;99.90;;;;;;5113253;28;19923;-73
2021/04/21 05:23:14;;;;;;;;;;;8.90;99.90;;;;;;5111896;28;19951;-71
2021/04/21 05:25:46;;;;;;;;;;;9.00;99.90;;;;;;5094147;28;19912;-73
2021/04/21 05:28:14;;;;;;;;;;;9.00;99.90;;;;;;5095229;28;19912;-73
2021/04/21 05:30:57;;;;;;;;;;;9.10;99.90;;;;;;5094043;28;19964;-73
2021/04/21 05:33:41;;;;;;;;;;;9.20;99.90;;;;;;5094197;28;19908;-73
2021/04/21 05:36:25;;;;;;;;;;;9.30;99.90;;;;;;5074089;28;19912;-73
2021/04/21 05:38:51;;;;;;;;;;;9.40;99.90;;;;;;5095317;28;20360;-73
2021/04/21 05:41:16;;;;;;;;;;;9.50;99.90;;;;;;5095160;28;19915;-73
2021/04/21 05:44:00;;;;;;;;;;;9.50;99.90;;;;;;5096412;28;19907;-73
2021/04/21 05:46:35;;;;;;;;;;;9.60;99.90;;;;;;5095263;28;19931;-73
2021/04/21 05:49:19;;;;;;;;;;;9.60;99.90;;;;;;5096535;28;19998;-73
2021/04/21 05:51:49;;;;;;;;;;;9.70;99.90;;;;;;5094892;28;19916;-73
2021/04/21 05:54:33;;;;;;;;;;;9.80;99.90;;;;;;5095879;28;19936;-73
2021/04/21 05:57:07;;;;;;;;;;;9.90;99.90;;;;;;5087839;28;20045;-73
2021/04/21 05:59:35;;;;;;;;;;;9.90;99.90;;;;;;5096342;28;19915;-72
2021/04/21 06:02:03;;;;;;;;;;;10.10;99.90;;;;;;5091543;28;19996;-72
2021/04/21 06:04:28;;;;;;;;;;;10.00;99.90;;;;;;5095416;28;19908;-72
2021/04/21 06:07:07;;;;;;;;;;;10.10;99.90;;;;;;5095522;28;19912;-72
2021/04/21 06:09:32;;;;;;;;;;;10.10;99.90;;;;;;5094867;28;19943;-72
2021/04/21 06:12:11;;;;;;;;;;;10.20;99.90;;;;;;5096286;28;19908;-72
2021/04/21 06:14:37;;;;;;;;;;;10.30;99.90;;;;;;5096580;28;19908;-73
2021/04/21 06:17:03;;;;;;;;;;;10.30;99.90;;;;;;5096486;28;19964;-73
2021/04/21 06:19:29;;;;;;;;;;;10.40;99.90;;;;;;5096395;28;20376;-73
2021/04/21 06:21:54;;;;;;;;;;;10.40;99.90;;;;;;5095768;28;20379;-72
2021/04/21 06:24:21;;;;;;;;;;;10.40;99.90;;;;;;5096035;28;20323;-72
2021/04/21 06:26:47;;;;;;;;;;;10.50;99.90;;;;;;5095845;28;20376;-72
2021/04/21 06:29:12;;;;;;;;;;;10.60;99.90;;;;;;5095902;28;19938;-73
2021/04/21 06:31:39;;;;;;;;;;;10.70;99.90;;;;;;5095695;28;19908;-73
2021/04/21 06:34:05;;;;;;;;;;;10.80;99.90;;;;;;5094780;28;19915;-72
2021/04/21 06:36:50;;;;;;;;;;;10.70;99.90;;;;;;5094971;28;19912;-72
2021/04/21 06:39:18;;;;;;;;;;;10.70;99.90;;;;;;5091655;28;19976;-72
2021/04/21 06:41:44;;;;;;;;;;;10.90;99.90;;;;;;5092979;28;19908;-72
2021/04/21 06:44:12;;;;;;;;;;;11.00;99.90;;;;;;5091802;28;20431;-71
2021/04/21 06:46:38;;;;;;;;;;;11.00;99.90;;;;;;5095216;28;20419;-72
2021/04/21 06:49:04;;;;;;;;;;;11.10;99.90;;;;;;5093415;28;19958;-72
2021/04/21 06:51:31;;;;;;;;;;;11.10;99.90;;;;;;5094319;28;20360;-72
2021/04/21 06:53:57;;;;;;;;;;;11.30;99.90;;;;;;5095477;28;19908;-71
2021/04/21 06:56:25;;;;;;;;;;;11.40;99.90;;;;;;5094625;28;20496;-71
2021/04/21 06:58:51;;;;;;;;;;;11.40;99.90;;;;;;5093517;28;20296;-71
2021/04/21 07:01:38;;;;;;;;;;;11.50;99.90;;;;;;5094980;28;19908;-72
2021/04/21 07:04:09;;;;;;;;;;;11.70;99.90;;;;;;5092481;28;19908;-72
2021/04/21 07:06:35;;;;;;;;;;;11.70;99.90;;;;;;5095635;28;19915;-71
2021/04/21 07:09:00;;;;;;;;;;;11.80;99.90;;;;;;5095847;28;19908;-72
2021/04/21 07:11:26;;;;;;;;;;;11.90;99.90;;;;;;5095364;28;19908;-72
2021/04/21 07:13:51;;;;;;;;;;;12.10;99.90;;;;;;5095404;28;19955;-70
2021/04/21 07:16:17;;;;;;;;;;;12.10;99.90;;;;;;5097443;28;19947;-73
2021/04/21 07:19:02;;;;;;;;;;;12.00;99.90;;;;;;5101320;28;19908;-71
2021/04/21 07:21:29;;;;;;;;;;;12.10;99.90;;;;;;5096978;28;19915;-73
2021/04/21 07:23:59;;;;;;;;;;;12.20;99.90;;;;;;5100733;28;19908;-70
2021/04/21 07:26:29;;;;;;;;;;;12.20;99.90;;;;;;5103125;28;20498;-68
2021/04/21 07:28:55;;;;;;;;;;;12.20;99.90;;;;;;5106432;28;19915;-70
2021/04/21 07:31:20;;;;;;;;;;;12.40;99.90;;;;;;5102203;28;19931;-69
2021/04/21 07:33:47;;;;;;;;;;;12.40;99.90;;;;;;5106373;28;19908;-69
2021/04/21 07:36:12;;;;;;;;;;;12.50;99.90;;;;;;5109710;28;19923;-72
2021/04/21 07:38:42;;;;;;;;;;;12.50;99.90;;;;;;5097679;28;19916;-70
2021/04/21 07:41:09;;;;;;;;;;;12.50;99.90;;;;;;5094035;28;19912;-71
2021/04/21 07:43:38;;;;;;;;;;;12.50;99.90;;;;;;5091852;28;19916;-69
2021/04/21 07:46:04;;;;;;;;;;;12.50;99.90;;;;;;5094958;28;19908;-76
2021/04/21 07:48:33;;;;;;;;;;;12.60;99.90;;;;;;5091338;28;19915;-69
2021/04/21 07:50:59;;;;;;;;;;;12.70;99.90;;;;;;5092060;28;19955;-70
2021/04/21 07:53:24;;;;;;;;;;;12.50;99.90;;;;;;5093911;28;19908;-72
2021/04/21 07:56:02;;;;;;;;;;;12.40;99.90;;;;;;5092326;28;19935;-73
2021/04/21 07:58:28;;;;;;;;;;;12.40;99.90;;;;;;5104752;28;19922;-72
2021/04/21 08:00:53;;;;;;;;;;;12.10;99.90;;;;;;5091093;28;20010;-69
2021/04/21 08:03:22;;;;;;;;;;;12.10;99.90;;;;;;5093204;28;19919;-70
2021/04/21 08:05:51;;;;;;;;;;;12.20;99.90;;;;;;5091288;28;19943;-69
2021/04/21 08:08:25;;;;;;;;;;;12.30;99.90;;;;;;5090547;28;20362;-69
2021/04/21 08:10:51;;;;;;;;;;;12.30;99.90;;;;;;5092216;28;19914;-69
2021/04/21 08:13:16;;;;;;;;;;;12.30;99.90;;;;;;5093613;28;19990;-77
2021/04/21 08:15:43;;;;;;;;;;;12.50;99.90;;;;;;5090121;28;20394;-72
2021/04/21 08:18:09;;;;;;;;;;;12.60;99.90;;;;;;5088285;28;20011;-71
2021/04/21 08:20:36;;;;;;;;;;;12.80;99.90;;;;;;5092239;28;19926;-69
2021/04/21 08:23:03;;;;;;;;;;;13.00;99.90;;;;;;5092135;28;20348;-71
2021/04/21 08:25:29;;;;;;;;;;;13.10;99.90;;;;;;5092512;28;19965;-71
2021/04/21 08:27:55;;;;;;;;;;;13.10;99.90;;;;;;5092104;28;19912;-71
2021/04/21 08:30:21;;;;;;;;;;;13.10;99.90;;;;;;5091492;28;19908;-71
2021/04/21 08:32:46;;;;;;;;;;;13.20;99.90;;;;;;5087872;28;20327;-71
2021/04/21 08:35:14;;;;;;;;;;;13.30;99.90;;;;;;5089923;28;20287;-72
2021/04/21 08:37:40;;;;;;;;;;;13.30;99.90;;;;;;5091188;28;20029;-73
2021/04/21 08:40:07;;;;;;;;;;;13.30;99.90;;;;;;5092862;28;20006;-73
2021/04/21 08:42:32;;;;;;;;;;;13.20;99.90;;;;;;5093065;28;19908;-75
2021/04/21 08:44:58;;;;;;;;;;;13.20;99.90;;;;;;5090983;28;19908;-71
2021/04/21 08:47:25;;;;;;;;;;;13.30;99.90;;;;;;5092635;28;19908;-74
2021/04/21 08:49:52;;;;;;;;;;;13.40;99.90;;;;;;5093246;28;19917;-73
2021/04/21 08:52:19;;;;;;;;;;;13.50;99.90;;;;;;5091452;28;19915;-73
2021/04/21 08:54:48;;;;;;;;;;;13.40;99.90;;;;;;5090848;28;20388;-73
2021/04/21 08:57:14;;;;;;;;;;;13.30;99.90;;;;;;5093599;28;20011;-72
2021/04/21 08:59:40;;;;;;;;;;;13.10;99.90;;;;;;5091542;28;20060;-72
2021/04/21 09:02:10;;;;;;;;;;;13.00;99.90;;;;;;5091130;28;19908;-72
2021/04/21 09:04:35;;;;;;;;;;;12.90;99.90;;;;;;5091042;28;20330;-72
2021/04/21 09:07:01;;;;;;;;;;;12.90;99.90;;;;;;5092202;28;19908;-71
2021/04/21 09:09:27;;;;;;;;;;;12.90;99.90;;;;;;5092793;28;19912;-70
2021/04/21 09:11:53;;;;;;;;;;;13.00;99.90;;;;;;5094651;28;20409;-71
2021/04/21 09:14:19;;;;;;;;;;;13.00;99.90;;;;;;5095171;28;20003;-72
2021/04/21 09:16:44;;;;;;;;;;;13.10;99.90;;;;;;5094066;28;19912;-72
2021/04/21 09:19:11;;;;;;;;;;;13.10;99.90;;;;;;5094637;28;20353;-73
2021/04/21 09:21:38;;;;;;;;;;;13.00;99.90;;;;;;5097361;28;20391;-72
2021/04/21 09:24:04;;;;;;;;;;;13.00;99.90;;;;;;5095849;28;19915;-72
2021/04/21 09:26:34;;;;;;;;;;;13.10;99.90;;;;;;5096171;28;20303;-73
2021/04/21 09:28:59;;;;;;;;;;;13.20;99.90;;;;;;5100024;28;20348;-73
2021/04/21 09:31:26;;;;;;;;;;;13.60;99.90;;;;;;5109839;28;19904;-73
2021/04/21 09:34:06;;;;;;;;;;;13.50;99.90;;;;;;5114975;28;19912;-73
2021/04/21 09:36:33;;;;;;;;;;;13.60;99.90;;;;;;5103912;28;19912;-72
2021/04/21 09:39:07;;;;;;;;;;;13.70;99.90;;;;;;5106143;28;20065;-73
2021/04/21 09:41:33;;;;;;;;;;;14.00;99.90;;;;;;5104228;28;20340;-73
2021/04/21 09:44:10;;;;;;;;;;;14.10;99.90;;;;;;5097144;28;19919;-72
2021/04/21 09:46:37;;;;;;;;;;;13.90;99.90;;;;;;5098184;28;19915;-72
2021/04/21 09:49:03;;;;;;;;;;;13.70;99.90;;;;;;5097310;28;19908;-71
2021/04/21 09:51:28;;;;;;;;;;;13.50;99.90;;;;;;5097191;28;20419;-71
2021/04/21 09:53:54;;;;;;;;;;;13.20;99.90;;;;;;5097054;28;19907;-71
2021/04/21 09:56:20;;;;;;;;;;;13.00;99.90;;;;;;5096222;28;19912;-71
2021/04/21 09:58:49;;;;;;;;;;;12.70;99.90;;;;;;5096966;28;19953;-72
2021/04/21 10:01:20;;;;;;;;;;;12.60;99.90;;;;;;5095373;28;19904;-71
2021/04/21 10:03:47;;;;;;;;;;;12.50;99.90;;;;;;5094699;28;19904;-71
2021/04/21 10:06:21;;;;;;;;;;;12.40;99.90;;;;;;5095385;28;19957;-71
2021/04/21 10:08:47;;;;;;;;;;;12.30;99.90;;;;;;5090297;28;19904;-71
2021/04/21 10:11:13;;;;;;;;;;;12.30;99.90;;;;;;5092361;28;20344;-73
2021/04/21 10:13:45;;;;;;;;;;;12.40;99.90;;;;;;5094394;28;19935;-75
2021/04/21 10:16:11;;;;;;;;;;;12.50;99.90;;;;;;5095087;28;20325;-74
2021/04/21 10:18:37;;;;;;;;;;;12.70;99.90;;;;;;5094394;28;20356;-74
2021/04/21 10:21:04;;;;;;;;;;;12.80;99.90;;;;;;5095261;28;19994;-75
2021/04/21 10:23:29;;;;;;;;;;;12.70;99.90;;;;;;5094586;28;20083;-75
2021/04/21 10:25:59;;;;;;;;;;;12.60;99.90;;;;;;5095905;28;19908;-74
2021/04/21 10:28:26;;;;;;;;;;;12.30;99.90;;;;;;5095335;28;19904;-74
2021/04/21 10:30:51;;;;;;;;;;;12.30;99.90;;;;;;5094181;28;19903;-74
2021/04/21 10:33:17;;;;;;;;;;;12.10;99.90;;;;;;5094998;28;20372;-74
2021/04/21 10:35:43;;;;;;;;;;;12.20;99.90;;;;;;5094793;28;19904;-75
2021/04/21 10:38:13;;;;;;;;;;;12.10;99.90;;;;;;5095072;28;19974;-75
2021/04/21 10:40:38;;;;;;;;;;;12.10;99.90;;;;;;5096206;28;20345;-75
2021/04/21 10:43:04;;;;;;;;;;;11.90;99.90;;;;;;5094900;28;19957;-74
2021/04/21 10:45:31;;;;;;;;;;;12.10;99.90;;;;;;5094368;28;19911;-74
2021/04/21 10:47:57;;;;;;;;;;;12.20;99.90;;;;;;5094617;28;19908;-75
2021/04/21 10:50:37;;;;;;;;;;;12.30;99.90;;;;;;5096018;28;20271;-75
2021/04/21 10:53:03;;;;;;;;;;;12.50;99.90;;;;;;5094741;28;20004;-75
2021/04/21 10:55:35;;;;;;;;;;;12.60;99.90;;;;;;5095436;28;20372;-75
2021/04/21 10:58:03;;;;;;;;;;;12.70;99.90;;;;;;5095837;28;19916;-75
2021/04/21 11:00:29;;;;;;;;;;;12.70;99.90;;;;;;5095784;28;19947;-73
2021/04/21 11:02:56;;;;;;;;;;;12.40;99.90;;;;;;5095811;28;19950;-75
2021/04/21 11:05:42;;;;;;;;;;;12.30;99.90;;;;;;5096174;28;19995;-74
2021/04/21 11:08:08;;;;;;;;;;;12.40;99.90;;;;;;5093729;28;20261;-73
2021/04/21 11:10:41;;;;;;;;;;;12.60;99.90;;;;;;5094361;28;19915;-74
2021/04/21 11:13:10;;;;;;;;;;;13.00;99.90;;;;;;5095466;28;20058;-75
2021/04/21 11:15:40;;;;;;;;;;;13.50;99.90;;;;;;5095434;28;20356;-74
2021/04/21 11:18:05;;;;;;;;;;;13.80;99.90;;;;;;5094080;28;19907;-75
2021/04/21 11:20:46;;;;;;;;;;;13.90;99.90;;;;;;5094045;28;19915;-74
2021/04/21 11:23:30;;;;;;;;;;;14.00;99.90;;;;;;5093954;28;20411;-74
2021/04/21 11:26:15;;;;;;;;;;;14.20;99.90;;;;;;5093324;28;19923;-74
2021/04/21 11:28:59;;;;;;;;;;;14.10;99.90;;;;;;5095027;28;19915;-74
2021/04/21 11:31:49;;;;;;;;;;;13.90;99.90;;;;;;5093899;28;20446;-74
2021/04/21 11:34:32;;;;;;;;;;;13.80;99.90;;;;;;5094322;28;19903;-74
2021/04/21 11:36:58;;;;;;;;;;;13.60;99.90;;;;;;5094500;28;19912;-74
2021/04/21 11:39:39;;;;;;;;;;;13.70;99.90;;;;;;5094782;28;19919;-74
2021/04/21 11:42:21;;;;;;;;;;;13.90;99.90;;;;;;5096780;28;19908;-74
2021/04/21 11:44:50;;;;;;;;;;;13.90;99.90;;;;;;5095650;28;19942;-75
2021/04/21 11:47:39;;;;;;;;;;;14.00;99.90;;;;;;5095739;28;20331;-75
2021/04/21 11:50:06;;;;;;;;;;;14.00;99.90;;;;;;5095067;28;19896;-74
2021/04/21 11:52:45;;;;;;;;;;;13.90;99.90;;;;;;5114297;28;19928;-74
2021/04/21 11:55:23;;;;;;;;;;;13.90;99.90;;;;;;5113428;28;19959;-75
2021/04/21 11:57:49;;;;;;;;;;;13.70;99.90;;;;;;5113842;28;19959;-74
2021/04/21 12:00:15;;;;;;;;;;;13.70;99.90;;;;;;5113161;28;19958;-75
2021/04/21 12:02:41;;;;;;;;;;;13.90;99.90;;;;;;5117233;28;19912;-76
2021/04/21 12:05:06;;;;;;;;;;;14.10;99.90;;;;;;5118074;28;19896;-75
2021/04/21 12:07:32;;;;;;;;;;;14.20;99.90;;;;;;5117651;28;19980;-75
2021/04/21 12:09:58;;;;;;;;;;;14.30;99.90;;;;;;5116600;28;19912;-75
2021/04/21 12:12:25;;;;;;;;;;;14.30;99.90;;;;;;5115888;28;19896;-74
2021/04/21 12:15:04;;;;;;;;;;;14.00;99.90;;;;;;5101401;28;19908;-74
2021/04/21 12:17:30;;;;;;;;;;;13.90;99.90;;;;;;5097567;28;19998;-72
2021/04/21 12:19:58;;;;;;;;;;;13.90;99.90;;;;;;5097416;28;20333;-75
2021/04/21 12:22:37;;;;;;;;;;;13.90;99.90;;;;;;5096057;28;19954;-74
2021/04/21 12:25:06;;;;;;;;;;;14.00;99.90;;;;;;5093831;28;19908;-72
2021/04/21 12:27:33;;;;;;;;;;;14.00;99.90;;;;;;5094515;28;20241;-75
2021/04/21 12:30:09;;;;;;;;;;;14.00;99.90;;;;;;5094688;28;19919;-74
2021/04/21 12:32:34;;;;;;;;;;;14.00;99.90;;;;;;5075443;28;19931;-74
2021/04/21 12:35:00;;;;;;;;;;;14.10;99.90;;;;;;5092734;28;19908;-75
2021/04/21 12:37:26;;;;;;;;;;;14.20;99.90;;;;;;5092366;28;19999;-74
2021/04/21 12:39:52;;;;;;;;;;;14.30;99.90;;;;;;5092380;28;19912;-75
2021/04/21 12:42:21;;;;;;;;;;;14.30;99.90;;;;;;5092066;28;20379;-74
2021/04/21 12:44:47;;;;;;;;;;;14.30;99.90;;;;;;5073418;28;19909;-75
2021/04/21 12:47:13;;;;;;;;;;;14.30;99.90;;;;;;5081285;28;19915;-75
2021/04/21 12:49:42;;;;;;;;;;;14.60;99.90;;;;;;5092093;28;19912;-74
2021/04/21 12:52:09;;;;;;;;;;;14.60;99.90;;;;;;5092916;28;19951;-73
2021/04/21 12:54:36;;;;;;;;;;;14.30;99.90;;;;;;5093767;28;19915;-71
2021/04/21 12:57:05;;;;;;;;;;;14.20;99.90;;;;;;5091257;28;19916;-73
2021/04/21 12:59:41;;;;;;;;;;;14.30;99.90;;;;;;5092880;28;19978;-75
2021/04/21 13:02:07;;;;;;;;;;;14.40;99.90;;;;;;5093739;28;19933;-74
2021/04/21 13:04:36;;;;;;;;;;;14.50;99.90;;;;;;5093831;28;19908;-73
2021/04/21 13:07:14;;;;;;;;;;;14.50;99.90;;;;;;5093247;28;19912;-75
2021/04/21 13:09:39;;;;;;;;;;;14.50;99.90;;;;;;5091803;28;19908;-73
2021/04/21 13:12:05;;;;;;;;;;;14.40;99.90;;;;;;5091799;28;20314;-73
2021/04/21 13:14:40;;;;;;;;;;;14.40;99.90;;;;;;5093593;28;19908;-73
2021/04/21 13:17:06;;;;;;;;;;;14.50;99.90;;;;;;5093761;28;19997;-75
2021/04/21 13:19:33;;;;;;;;;;;14.50;99.90;;;;;;5091665;28;19908;-73
2021/04/21 13:22:00;;;;;;;;;;;14.60;99.90;;;;;;5092004;28;19918;-73
2021/04/21 13:24:25;;;;;;;;;;;14.70;99.90;;;;;;5091796;28;19907;-73
2021/04/21 13:26:51;;;;;;;;;;;14.30;99.90;;;;;;5093533;28;19998;-72
2021/04/21 13:29:29;;;;;;;;;;;14.30;99.90;;;;;;5093378;28;19908;-72
2021/04/21 13:32:04;;;;;;;;;;;14.50;99.90;;;;;;5093042;28;20376;-73
2021/04/21 13:34:29;;;;;;;;;;;14.50;99.90;;;;;;5092143;28;19908;-74
2021/04/21 13:36:55;;;;;;;;;;;14.30;99.90;;;;;;5093423;28;20324;-73
2021/04/21 13:39:20;;;;;;;;;;;14.30;99.90;;;;;;5093356;28;19908;-72
2021/04/21 13:41:46;;;;;;;;;;;14.50;99.90;;;;;;5093176;28;19908;-75
2021/04/21 13:44:11;;;;;;;;;;;14.50;99.90;;;;;;5091818;28;19975;-75
2021/04/21 13:46:38;;;;;;;;;;;14.50;99.90;;;;;;5092889;28;20284;-74
2021/04/21 13:49:03;;;;;;;;;;;14.40;99.90;;;;;;5090798;28;19966;-75
2021/04/21 13:51:29;;;;;;;;;;;14.30;99.90;;;;;;5093388;28;19992;-75
2021/04/21 13:54:13;;;;;;;;;;;14.30;99.90;;;;;;5093649;28;19915;-74
2021/04/21 13:56:39;;;;;;;;;;;14.30;99.90;;;;;;5092936;28;19931;-75
2021/04/21 13:59:04;;;;;;;;;;;14.40;99.90;;;;;;5096839;28;20348;-75
2021/04/21 14:01:31;;;;;;;;;;;14.30;99.90;;;;;;5096187;28;19914;-75
2021/04/21 14:03:56;;;;;;;;;;;14.30;99.80;;;;;;5097846;28;19908;-75
2021/04/21 14:06:22;;;;;;;;;;;14.10;99.90;;;;;;5095361;28;19962;-75
2021/04/21 14:08:47;;;;;;;;;;;14.20;99.90;;;;;;5096227;28;19915;-75
2021/04/21 14:11:14;;;;;;;;;;;14.10;99.90;;;;;;5097699;28;19935;-74
2021/04/21 14:13:40;;;;;;;;;;;14.20;99.90;;;;;;5097049;28;19908;-75
2021/04/21 14:16:05;;;;;;;;;;;14.30;99.90;;;;;;5098116;28;20273;-74
2021/04/21 14:18:31;;;;;;;;;;;14.30;99.60;;;;;;5098398;28;19908;-74
2021/04/21 14:20:56;;;;;;;;;;;14.20;99.10;;;;;;5097989;28;19932;-74
2021/04/21 14:23:22;;;;;;;;;;;14.30;99.40;;;;;;5102944;28;19908;-75
2021/04/21 14:25:47;;;;;;;;;;;14.40;99.50;;;;;;5115072;28;19909;-76
2021/04/21 14:28:14;;;;;;;;;;;14.50;99.80;;;;;;5115242;28;19904;-75
2021/04/21 14:30:40;;;;;;;;;;;14.30;99.70;;;;;;5114862;28;19911;-74
2021/04/21 14:33:05;;;;;;;;;;;14.30;99.70;;;;;;5113262;28;19908;-74
2021/04/21 14:35:31;;;;;;;;;;;14.40;99.80;;;;;;5116385;28;19939;-74